createdAt,value
2022-12-01T00:00:30.836Z,68.98
2022-12-01T00:01:03.137Z,69.16
2022-12-01T00:01:34.872Z,69.30
2022-12-01T00:02:06.686Z,69.40
2022-12-01T00:02:38.641Z,69.48
2022-12-01T00:03:10.500Z,69.59
2022-12-01T00:03:42.770Z,69.34
2022-12-01T00:04:14.464Z,69.42
2022-12-01T00:04:47.620Z,69.68
2022-12-01T00:05:20.108Z,69.93
2022-12-01T00:05:58.692Z,70.49
2022-12-01T00:06:30.666Z,70.63
2022-12-01T00:07:02.322Z,70.55
2022-12-01T00:07:34.169Z,70.29
2022-12-01T00:08:06.049Z,70.19
2022-12-01T00:08:39.019Z,70.03
2022-12-01T00:09:29.193Z,70.17
2022-12-01T00:10:19.675Z,70.34
2022-12-01T00:10:51.353Z,70.33
2022-12-01T00:11:23.012Z,70.29
2022-12-01T00:11:55.003Z,70.48
2022-12-01T00:12:26.724Z,70.56
2022-12-01T00:12:59.788Z,70.65
2022-12-01T00:13:32.032Z,70.68
2022-12-01T00:14:04.216Z,70.84
2022-12-01T00:14:36.000Z,70.89
2022-12-01T00:15:07.806Z,70.88
2022-12-01T00:15:39.466Z,70.62
2022-12-01T00:16:12.362Z,70.60
2022-12-01T00:16:44.646Z,70.73
2022-12-01T00:17:16.811Z,70.88
2022-12-01T00:17:49.132Z,71.09
2022-12-01T00:18:20.921Z,70.87
2022-12-01T00:18:52.909Z,71.04
2022-12-01T00:19:25.783Z,71.21
2022-12-01T00:19:57.502Z,70.80
2022-12-01T00:20:29.775Z,70.67
2022-12-01T00:21:01.434Z,71.31
2022-12-01T00:21:33.144Z,71.34
2022-12-01T00:22:04.849Z,71.35
2022-12-01T00:22:36.844Z,71.36
2022-12-01T00:23:08.535Z,71.77
2022-12-01T00:23:42.819Z,71.99
2022-12-01T00:24:14.529Z,72.21
2022-12-01T00:24:46.627Z,72.35
2022-12-01T00:25:19.280Z,72.59
2022-12-01T00:25:50.947Z,72.83
2022-12-01T00:26:23.256Z,72.90
2022-12-01T00:26:54.945Z,72.95
2022-12-01T00:27:27.004Z,73.15
2022-12-01T00:27:59.183Z,73.45
2022-12-01T00:28:30.913Z,73.60
2022-12-01T00:29:02.624Z,73.78
2022-12-01T00:29:34.299Z,73.90
2022-12-01T00:30:06.769Z,74.41
2022-12-01T00:30:38.444Z,74.12
2022-12-01T00:31:11.239Z,73.82
2022-12-01T00:31:42.993Z,74.11
2022-12-01T00:32:14.834Z,74.48
2022-12-01T00:32:47.177Z,74.78
2022-12-01T00:33:19.233Z,74.87
2022-12-01T00:33:51.027Z,74.96
2022-12-01T00:34:23.790Z,75.17
2022-12-01T00:34:55.480Z,75.39
2022-12-01T00:35:27.154Z,75.41
2022-12-01T00:36:01.975Z,75.51
2022-12-01T00:36:33.657Z,75.30
2022-12-01T00:37:05.531Z,74.70
2022-12-01T00:37:37.540Z,74.22
2022-12-01T00:38:09.231Z,74.33
2022-12-01T00:38:41.214Z,74.45
2022-12-01T00:39:12.899Z,74.54
2022-12-01T00:39:44.582Z,74.25
2022-12-01T00:40:16.296Z,74.07
2022-12-01T00:40:47.981Z,73.98
2022-12-01T00:41:20.951Z,73.96
2022-12-01T00:41:52.777Z,74.04
2022-12-01T00:42:24.533Z,74.18
2022-12-01T00:42:56.204Z,74.40
2022-12-01T00:43:27.877Z,74.49
2022-12-01T00:43:59.868Z,74.67
2022-12-01T00:44:31.522Z,74.72
2022-12-01T00:45:03.304Z,74.52
2022-12-01T00:45:35.051Z,74.30
2022-12-01T00:46:06.915Z,74.13
2022-12-01T00:46:38.717Z,73.93
2022-12-01T00:47:10.858Z,73.82
2022-12-01T00:47:42.829Z,73.76
2022-12-01T00:48:14.517Z,73.80
2022-12-01T00:48:46.355Z,73.75
2022-12-01T00:49:18.385Z,73.97
2022-12-01T00:49:50.244Z,73.98
2022-12-01T00:50:22.075Z,74.11
2022-12-01T00:50:55.336Z,74.15
2022-12-01T00:51:27.475Z,74.30
2022-12-01T00:51:59.282Z,74.34
2022-12-01T00:52:30.978Z,74.26
2022-12-01T00:53:02.646Z,74.15
2022-12-01T00:53:34.511Z,74.03
2022-12-01T00:54:06.187Z,74.02
2022-12-01T00:54:38.248Z,73.78
2022-12-01T00:55:09.925Z,73.83
2022-12-01T00:55:41.697Z,73.71
2022-12-01T00:56:13.435Z,73.42
2022-12-01T00:56:45.113Z,73.35
2022-12-01T00:57:16.817Z,73.39
2022-12-01T00:57:50.793Z,73.35
2022-12-01T00:58:23.323Z,73.39
2022-12-01T00:58:55.024Z,73.49
2022-12-01T00:59:26.755Z,73.40
2022-12-01T00:59:58.750Z,73.34
2022-12-01T01:00:30.472Z,73.29
2022-12-01T01:01:02.362Z,73.28
2022-12-01T01:01:35.171Z,73.35
2022-12-01T01:02:07.647Z,73.29
2022-12-01T01:02:40.365Z,73.33
2022-12-01T01:03:12.121Z,73.08
2022-12-01T01:03:43.801Z,73.29
2022-12-01T01:04:15.715Z,73.52
2022-12-01T01:04:47.398Z,73.67
2022-12-01T01:05:19.368Z,73.70
2022-12-01T01:05:51.073Z,73.82
2022-12-01T01:06:22.741Z,74.10
2022-12-01T01:06:54.491Z,73.85
2022-12-01T01:07:26.261Z,73.91
2022-12-01T01:07:58.088Z,73.90
2022-12-01T01:08:29.863Z,74.04
2022-12-01T01:09:01.608Z,74.29
2022-12-01T01:09:33.477Z,73.91
2022-12-01T01:10:05.523Z,73.73
2022-12-01T01:10:41.684Z,74.07
2022-12-01T01:11:13.373Z,74.51
2022-12-01T01:11:45.076Z,74.88
2022-12-01T01:12:16.735Z,75.18
2022-12-01T01:12:48.429Z,75.25
2022-12-01T01:13:20.175Z,75.06
2022-12-01T01:13:51.886Z,74.87
2022-12-01T01:14:24.187Z,74.92
2022-12-01T01:14:55.878Z,75.10
2022-12-01T01:15:27.562Z,75.21
2022-12-01T01:16:00.422Z,75.22
2022-12-01T01:16:32.252Z,75.33
2022-12-01T01:17:04.144Z,75.26
2022-12-01T01:17:35.854Z,75.02
2022-12-01T01:18:09.656Z,74.92
2022-12-01T01:18:41.505Z,74.99
2022-12-01T01:19:13.539Z,75.38
2022-12-01T01:19:45.323Z,75.93
2022-12-01T01:20:17.105Z,76.57
2022-12-01T01:20:54.968Z,76.91
2022-12-01T01:21:27.376Z,76.59
2022-12-01T01:21:59.084Z,76.12
2022-12-01T01:22:30.753Z,75.91
2022-12-01T01:23:02.519Z,75.46
2022-12-01T01:23:34.496Z,75.18
2022-12-01T01:24:06.367Z,75.14
2022-12-01T01:24:38.174Z,75.11
2022-12-01T01:25:09.926Z,74.87
2022-12-01T01:25:41.599Z,75.04
2022-12-01T01:26:13.227Z,74.89
2022-12-01T01:26:45.329Z,74.51
2022-12-01T01:27:17.093Z,74.41
2022-12-01T01:27:48.810Z,74.36
2022-12-01T01:28:20.484Z,74.50
2022-12-01T01:28:52.951Z,75.54
2022-12-01T01:29:24.656Z,75.81
2022-12-01T01:29:56.348Z,76.18
2022-12-01T01:30:28.099Z,76.42
2022-12-01T01:31:00.181Z,76.91
2022-12-01T01:31:32.053Z,76.90
2022-12-01T01:32:04.272Z,76.84
2022-12-01T01:32:35.939Z,76.54
2022-12-01T01:33:07.611Z,76.25
2022-12-01T01:33:39.471Z,76.11
2022-12-01T01:34:11.175Z,76.11
2022-12-01T01:34:42.856Z,75.97
2022-12-01T01:35:14.597Z,76.00
2022-12-01T01:35:46.273Z,75.98
2022-12-01T01:36:18.573Z,75.98
2022-12-01T01:36:50.744Z,76.17
2022-12-01T01:37:22.758Z,76.00
2022-12-01T01:37:54.425Z,75.74
2022-12-01T01:38:26.360Z,75.66
2022-12-01T01:38:58.999Z,75.46
2022-12-01T01:39:30.687Z,75.59
2022-12-01T01:40:02.400Z,76.19
2022-12-01T01:40:34.110Z,76.31
2022-12-01T01:41:06.630Z,76.33
2022-12-01T01:41:38.337Z,76.19
2022-12-01T01:42:14.581Z,76.06
2022-12-01T01:42:46.626Z,76.49
2022-12-01T01:43:37.811Z,76.52
2022-12-01T01:44:28.216Z,76.55
2022-12-01T01:44:59.880Z,76.61
2022-12-01T01:45:31.741Z,76.79
2022-12-01T01:46:04.559Z,76.86
2022-12-01T01:46:36.819Z,76.91
2022-12-01T01:47:08.523Z,76.79
2022-12-01T01:47:40.381Z,76.50
2022-12-01T01:48:13.648Z,76.58
2022-12-01T01:48:48.031Z,76.33
2022-12-01T01:49:19.911Z,76.73
2022-12-01T01:49:52.514Z,77.21
2022-12-01T01:50:26.529Z,77.12
2022-12-01T01:50:58.310Z,76.93
2022-12-01T01:51:35.520Z,76.88
2022-12-01T01:52:07.245Z,76.94
2022-12-01T01:52:43.215Z,76.77
2022-12-01T01:53:15.764Z,77.08
2022-12-01T01:53:48.792Z,77.37
2022-12-01T01:54:22.516Z,77.44
2022-12-01T01:54:55.592Z,77.28
2022-12-01T01:55:28.485Z,77.05
2022-12-01T01:56:01.781Z,77.05
2022-12-01T01:56:35.016Z,77.31
2022-12-01T01:57:07.793Z,77.30
2022-12-01T01:57:40.242Z,77.31
2022-12-01T01:58:12.128Z,77.49
2022-12-01T01:58:44.418Z,77.64
2022-12-01T01:59:19.777Z,77.69
2022-12-01T01:59:54.252Z,78.22
2022-12-01T02:00:26.076Z,78.18
2022-12-01T02:00:58.078Z,78.11
2022-12-01T02:01:31.299Z,78.69
2022-12-01T02:02:06.533Z,78.61
2022-12-01T02:02:40.832Z,78.42
2022-12-01T02:03:16.308Z,78.08
2022-12-01T02:03:48.968Z,78.00
2022-12-01T02:04:20.651Z,77.57
2022-12-01T02:04:55.838Z,77.33
2022-12-01T02:05:29.681Z,77.29
2022-12-01T02:06:04.687Z,77.54
2022-12-01T02:06:37.095Z,77.66
2022-12-01T02:07:11.456Z,77.40
2022-12-01T02:07:43.228Z,77.04
2022-12-01T02:08:14.930Z,76.88
2022-12-01T02:08:46.630Z,77.19
2022-12-01T02:09:18.505Z,77.44
2022-12-01T02:09:50.316Z,77.51
2022-12-01T02:10:24.110Z,77.67
2022-12-01T02:11:05.313Z,77.52
2022-12-01T02:11:48.557Z,77.39
2022-12-01T02:12:38.327Z,77.45
2022-12-01T02:13:10.062Z,77.49
2022-12-01T02:13:44.828Z,77.53
2022-12-01T02:14:25.070Z,77.45
2022-12-01T02:14:59.281Z,77.36
2022-12-01T02:15:37.415Z,77.37
2022-12-01T02:16:30.736Z,77.21
2022-12-01T02:17:05.922Z,77.18
2022-12-01T02:17:44.692Z,78.02
2022-12-01T02:18:16.336Z,78.40
2022-12-01T02:19:05.345Z,77.88
2022-12-01T02:19:52.504Z,77.51
2022-12-01T02:20:33.130Z,77.63
2022-12-01T02:21:23.462Z,77.67
2022-12-01T02:22:07.149Z,77.58
2022-12-01T02:22:39.093Z,77.56
2022-12-01T02:23:10.732Z,77.47
2022-12-01T02:23:42.443Z,77.81
2022-12-01T02:24:26.132Z,78.29
2022-12-01T02:25:03.701Z,78.58
2022-12-01T02:25:35.474Z,78.66
2022-12-01T02:26:13.092Z,78.73
2022-12-01T02:26:49.494Z,78.88
2022-12-01T02:27:29.384Z,79.38
2022-12-01T02:28:13.644Z,79.38
2022-12-01T02:28:55.128Z,79.16
2022-12-01T02:29:26.766Z,78.89
2022-12-01T02:30:04.401Z,78.55
2022-12-01T02:30:47.941Z,78.46
2022-12-01T02:31:22.356Z,78.38
2022-12-01T02:32:12.828Z,78.22
2022-12-01T02:32:47.227Z,78.12
2022-12-01T02:33:38.256Z,77.93
2022-12-01T02:34:14.776Z,77.83
2022-12-01T02:34:49.320Z,77.88
2022-12-01T02:35:33.253Z,77.73
2022-12-01T02:36:15.091Z,77.37
2022-12-01T02:36:50.936Z,76.95
2022-12-01T02:37:22.635Z,76.48
2022-12-01T02:38:13.041Z,75.88
2022-12-01T02:38:50.857Z,75.79
2022-12-01T02:39:38.233Z,75.50
2022-12-01T02:40:09.991Z,75.04
2022-12-01T02:40:52.460Z,74.88
2022-12-01T02:41:29.657Z,74.92
2022-12-01T02:42:09.436Z,74.55
2022-12-01T02:42:50.274Z,74.65
2022-12-01T02:43:27.717Z,74.60
2022-12-01T02:43:59.668Z,74.62
2022-12-01T02:44:35.053Z,74.55
2022-12-01T02:45:11.467Z,74.36
2022-12-01T02:45:45.895Z,74.20
2022-12-01T02:46:27.284Z,74.21
2022-12-01T02:46:59.044Z,74.15
2022-12-01T02:47:32.892Z,74.15
2022-12-01T02:48:06.413Z,74.17
2022-12-01T02:48:43.010Z,74.04
2022-12-01T02:49:21.013Z,74.18
2022-12-01T02:49:54.598Z,74.19
2022-12-01T02:50:28.187Z,73.93
2022-12-01T02:51:03.445Z,73.96
2022-12-01T02:51:37.473Z,74.04
2022-12-01T02:52:10.211Z,74.15
2022-12-01T02:52:42.806Z,74.03
2022-12-01T02:53:15.842Z,74.54
2022-12-01T02:53:47.713Z,74.73
2022-12-01T02:54:19.804Z,74.29
2022-12-01T02:54:52.067Z,74.26
2022-12-01T02:55:23.745Z,74.11
2022-12-01T02:55:57.720Z,74.42
2022-12-01T02:56:29.569Z,74.63
2022-12-01T02:57:01.270Z,74.44
2022-12-01T02:57:33.039Z,74.18
2022-12-01T02:58:12.450Z,74.10
2022-12-01T02:58:44.134Z,74.55
2022-12-01T02:59:16.160Z,74.45
2022-12-01T02:59:51.050Z,74.75
2022-12-01T03:00:22.967Z,74.84
2022-12-01T03:01:00.135Z,74.69
2022-12-01T03:01:52.211Z,74.74
2022-12-01T03:02:27.461Z,75.00
2022-12-01T03:03:08.280Z,74.97
2022-12-01T03:03:58.600Z,74.99
2022-12-01T03:04:42.412Z,74.98
2022-12-01T03:05:32.847Z,75.58
2022-12-01T03:06:12.557Z,75.39
2022-12-01T03:06:56.420Z,75.23
2022-12-01T03:07:46.729Z,75.29
2022-12-01T03:08:46.038Z,75.02
2022-12-01T03:09:17.963Z,74.97
2022-12-01T03:09:58.899Z,74.44
2022-12-01T03:10:52.654Z,74.57
2022-12-01T03:11:32.428Z,75.07
2022-12-01T03:12:04.179Z,75.85
2022-12-01T03:12:39.161Z,75.86
2022-12-01T03:13:29.578Z,75.83
2022-12-01T03:14:12.889Z,75.75
2022-12-01T03:14:45.154Z,75.44
2022-12-01T03:15:25.861Z,75.74
2022-12-01T03:15:57.902Z,75.63
2022-12-01T03:16:48.174Z,75.57
2022-12-01T03:17:25.098Z,74.85
2022-12-01T03:18:06.850Z,74.77
2022-12-01T03:18:41.032Z,75.02
2022-12-01T03:19:14.789Z,75.21
2022-12-01T03:19:50.450Z,75.54
2022-12-01T03:20:22.393Z,75.97
2022-12-01T03:20:59.369Z,76.24
2022-12-01T03:22:03.730Z,76.55
2022-12-01T03:22:46.874Z,76.45
2022-12-01T03:23:21.180Z,76.13
2022-12-01T03:23:58.760Z,76.34
2022-12-01T03:24:33.077Z,76.41
2022-12-01T03:25:05.468Z,76.20
2022-12-01T03:25:39.531Z,75.93
2022-12-01T03:26:16.313Z,75.56
2022-12-01T03:26:51.756Z,75.35
2022-12-01T03:27:27.395Z,75.33
2022-12-01T03:28:20.691Z,75.08
2022-12-01T03:28:54.703Z,74.77
2022-12-01T03:29:46.862Z,75.29
2022-12-01T03:30:18.772Z,75.30
2022-12-01T03:30:55.829Z,75.14
2022-12-01T03:31:30.930Z,74.84
2022-12-01T03:32:06.950Z,74.95
2022-12-01T03:32:42.683Z,74.81
2022-12-01T03:33:21.801Z,74.47
2022-12-01T03:33:59.278Z,74.86
2022-12-01T03:34:44.465Z,74.52
2022-12-01T03:35:24.713Z,74.56
2022-12-01T03:36:15.041Z,74.39
2022-12-01T03:36:52.753Z,74.43
2022-12-01T03:37:43.519Z,74.61
2022-12-01T03:38:18.778Z,74.75
2022-12-01T03:38:55.505Z,74.35
2022-12-01T03:39:29.709Z,74.25
2022-12-01T03:40:02.724Z,73.97
2022-12-01T03:40:36.728Z,73.86
2022-12-01T03:41:10.901Z,74.06
2022-12-01T03:41:47.522Z,73.77
2022-12-01T03:42:45.610Z,73.50
2022-12-01T03:43:20.145Z,73.67
2022-12-01T03:43:55.950Z,73.44
2022-12-01T03:44:33.039Z,74.09
2022-12-01T03:45:07.631Z,74.34
2022-12-01T03:45:57.924Z,74.27
2022-12-01T03:46:35.183Z,74.27
2022-12-01T03:47:10.761Z,74.17
2022-12-01T03:47:42.633Z,74.19
2022-12-01T03:48:14.470Z,74.06
2022-12-01T03:48:46.652Z,74.39
2022-12-01T03:49:18.923Z,74.61
2022-12-01T03:49:51.814Z,74.57
2022-12-01T03:50:29.420Z,74.40
2022-12-01T03:51:15.132Z,74.21
2022-12-01T03:51:55.383Z,74.12
2022-12-01T03:52:48.126Z,74.03
2022-12-01T03:53:23.689Z,73.73
2022-12-01T03:53:59.591Z,73.77
2022-12-01T03:54:31.269Z,73.71
2022-12-01T03:55:14.918Z,73.81
2022-12-01T03:55:48.981Z,73.47
2022-12-01T03:56:23.587Z,73.74
2022-12-01T03:56:59.551Z,73.62
2022-12-01T03:57:38.311Z,73.75
2022-12-01T03:58:17.064Z,73.98
2022-12-01T03:58:50.721Z,73.90
2022-12-01T03:59:24.109Z,73.96
2022-12-01T03:59:56.215Z,74.19
2022-12-01T04:00:28.671Z,74.45
2022-12-01T04:01:04.211Z,74.55
2022-12-01T04:01:36.371Z,74.56
2022-12-01T04:02:08.602Z,74.47
2022-12-01T04:02:40.753Z,74.33
2022-12-01T04:03:18.071Z,74.77
2022-12-01T04:03:49.805Z,74.74
2022-12-01T04:04:21.930Z,74.78
2022-12-01T04:04:53.830Z,74.86
2022-12-01T04:05:26.063Z,74.73
2022-12-01T04:05:58.064Z,74.52
2022-12-01T04:06:30.030Z,74.42
2022-12-01T04:07:01.716Z,74.33
2022-12-01T04:07:33.573Z,74.33
2022-12-01T04:08:05.421Z,74.45
2022-12-01T04:08:37.581Z,74.79
2022-12-01T04:09:09.422Z,75.02
2022-12-01T04:09:41.755Z,75.26
2022-12-01T04:10:13.472Z,75.49
2022-12-01T04:10:45.154Z,75.13
2022-12-01T04:11:37.527Z,74.97
2022-12-01T04:12:32.808Z,74.70
2022-12-01T04:13:04.582Z,74.41
2022-12-01T04:13:36.931Z,74.41
2022-12-01T04:14:08.694Z,74.20
2022-12-01T04:14:40.403Z,74.05
2022-12-01T04:15:12.911Z,74.16
2022-12-01T04:15:44.697Z,74.21
2022-12-01T04:16:16.445Z,74.08
2022-12-01T04:16:48.730Z,73.88
2022-12-01T04:17:20.701Z,73.67
2022-12-01T04:17:52.392Z,73.44
2022-12-01T04:18:24.051Z,73.30
2022-12-01T04:18:55.762Z,73.27
2022-12-01T04:19:27.737Z,73.30
2022-12-01T04:19:59.568Z,73.36
2022-12-01T04:20:31.305Z,73.46
2022-12-01T04:21:02.993Z,73.48
2022-12-01T04:21:34.828Z,73.41
2022-12-01T04:22:06.558Z,73.51
2022-12-01T04:22:38.592Z,73.33
2022-12-01T04:23:10.327Z,73.13
2022-12-01T04:24:00.098Z,73.13
2022-12-01T04:24:33.214Z,73.24
2022-12-01T04:25:06.613Z,73.35
2022-12-01T04:25:38.283Z,73.31
2022-12-01T04:26:15.470Z,73.33
2022-12-01T04:26:47.523Z,73.22
2022-12-01T04:27:19.919Z,73.15
2022-12-01T04:27:51.914Z,73.04
2022-12-01T04:28:23.607Z,73.05
2022-12-01T04:28:55.350Z,72.92
2022-12-01T04:29:27.208Z,72.71
2022-12-01T04:29:58.997Z,72.62
2022-12-01T04:30:30.697Z,72.56
2022-12-01T04:31:02.418Z,72.60
2022-12-01T04:31:34.242Z,72.60
2022-12-01T04:32:06.137Z,72.51
2022-12-01T04:32:41.361Z,72.26
2022-12-01T04:33:13.348Z,72.20
2022-12-01T04:33:45.197Z,72.42
2022-12-01T04:34:16.906Z,72.32
2022-12-01T04:34:48.892Z,72.43
2022-12-01T04:35:20.590Z,72.77
2022-12-01T04:35:59.225Z,73.16
2022-12-01T04:36:32.193Z,73.26
2022-12-01T04:37:04.773Z,73.02
2022-12-01T04:37:36.524Z,73.25
2022-12-01T04:38:08.197Z,73.32
2022-12-01T04:38:40.150Z,73.33
2022-12-01T04:39:11.827Z,73.48
2022-12-01T04:39:43.642Z,73.60
2022-12-01T04:40:15.418Z,73.85
2022-12-01T04:40:47.163Z,73.72
2022-12-01T04:41:19.047Z,73.88
2022-12-01T04:41:50.744Z,73.88
2022-12-01T04:42:22.450Z,73.91
2022-12-01T04:42:54.110Z,73.70
2022-12-01T04:43:25.796Z,73.80
2022-12-01T04:43:57.799Z,73.74
2022-12-01T04:44:34.511Z,73.82
2022-12-01T04:45:06.849Z,73.85
2022-12-01T04:45:38.568Z,73.58
2022-12-01T04:46:10.649Z,73.53
2022-12-01T04:46:42.669Z,73.61
2022-12-01T04:47:14.413Z,73.50
2022-12-01T04:47:46.115Z,73.36
2022-12-01T04:48:17.801Z,73.77
2022-12-01T04:48:49.450Z,74.18
2022-12-01T04:49:21.853Z,74.77
2022-12-01T04:49:54.455Z,75.12
2022-12-01T04:50:26.121Z,74.92
2022-12-01T04:50:58.187Z,74.64
2022-12-01T04:51:29.886Z,74.38
2022-12-01T04:52:01.625Z,74.42
2022-12-01T04:52:36.687Z,74.13
2022-12-01T04:53:08.368Z,74.51
2022-12-01T04:53:40.066Z,75.11
2022-12-01T04:54:11.776Z,75.14
2022-12-01T04:54:44.020Z,75.24
2022-12-01T04:55:15.988Z,75.35
2022-12-01T04:55:47.673Z,75.39
2022-12-01T04:56:19.480Z,75.53
2022-12-01T04:56:51.185Z,75.59
2022-12-01T04:57:22.862Z,75.78
2022-12-01T04:57:54.566Z,75.95
2022-12-01T04:58:26.617Z,76.06
2022-12-01T04:58:59.448Z,75.67
2022-12-01T04:59:31.182Z,75.70
2022-12-01T05:00:13.150Z,75.51
2022-12-01T05:00:45.410Z,75.66
2022-12-01T05:01:18.189Z,75.55
2022-12-01T05:01:50.060Z,75.80
2022-12-01T05:02:21.837Z,75.96
2022-12-01T05:02:53.531Z,75.89
2022-12-01T05:03:25.215Z,76.06
2022-12-01T05:03:56.916Z,75.88
2022-12-01T05:04:28.657Z,75.97
2022-12-01T05:05:00.812Z,75.57
2022-12-01T05:05:32.936Z,75.51
2022-12-01T05:06:05.771Z,75.15
2022-12-01T05:06:38.004Z,75.12
2022-12-01T05:07:09.827Z,75.11
2022-12-01T05:07:41.625Z,74.86
2022-12-01T05:08:13.344Z,74.91
2022-12-01T05:08:45.108Z,74.83
2022-12-01T05:09:17.720Z,74.99
2022-12-01T05:09:50.025Z,75.41
2022-12-01T05:10:22.024Z,75.85
2022-12-01T05:10:55.760Z,75.93
2022-12-01T05:11:28.716Z,75.72
2022-12-01T05:12:00.425Z,75.74
2022-12-01T05:12:32.175Z,76.29
2022-12-01T05:13:04.953Z,76.54
2022-12-01T05:13:36.951Z,84.10
2022-12-01T05:14:08.621Z,82.58
2022-12-01T05:14:40.295Z,80.27
2022-12-01T05:15:12.429Z,78.76
2022-12-01T05:15:44.125Z,77.64
2022-12-01T05:16:16.178Z,76.95
2022-12-01T05:16:48.047Z,76.26
2022-12-01T05:17:19.781Z,76.10
2022-12-01T05:17:51.459Z,76.63
2022-12-01T05:18:23.192Z,77.43
2022-12-01T05:19:14.502Z,93.47
2022-12-01T05:20:04.943Z,90.92
2022-12-01T05:20:55.592Z,83.77
2022-12-01T05:21:27.761Z,86.55
2022-12-01T05:21:59.412Z,81.07
2022-12-01T05:22:57.217Z,79.45
2022-12-01T05:23:23.606Z,78.71
2022-12-01T05:23:55.306Z,77.66
2022-12-01T05:24:27.132Z,77.13
2022-12-01T05:24:58.947Z,79.91
2022-12-01T05:25:30.898Z,80.76
2022-12-01T05:26:03.327Z,81.87
2022-12-01T05:26:35.506Z,80.54
2022-12-01T05:27:07.164Z,79.69
2022-12-01T05:27:38.854Z,78.97
2022-12-01T05:28:10.658Z,77.88
2022-12-01T05:28:42.394Z,77.79
2022-12-01T05:29:14.458Z,77.57
2022-12-01T05:29:46.442Z,77.10
2022-12-01T05:30:18.338Z,76.81
2022-12-01T05:30:50.451Z,76.81
2022-12-01T05:31:22.231Z,76.90
2022-12-01T05:31:54.351Z,76.96
2022-12-01T05:32:26.113Z,76.95
2022-12-01T05:32:57.805Z,76.86
2022-12-01T05:33:30.202Z,76.68
2022-12-01T05:34:01.911Z,76.37
2022-12-01T05:34:33.628Z,76.66
2022-12-01T05:35:05.680Z,77.84
2022-12-01T05:35:37.590Z,78.25
2022-12-01T05:36:09.449Z,78.04
2022-12-01T05:36:41.967Z,77.68
2022-12-01T05:37:13.996Z,77.24
2022-12-01T05:37:45.699Z,84.75
2022-12-01T05:38:17.806Z,83.38
2022-12-01T05:38:49.523Z,80.17
2022-12-01T05:39:21.201Z,80.78
2022-12-01T05:39:52.913Z,81.00
2022-12-01T05:40:24.767Z,81.76
2022-12-01T05:40:56.558Z,81.91
2022-12-01T05:41:28.308Z,80.45
2022-12-01T05:41:59.985Z,79.94
2022-12-01T05:42:31.986Z,79.12
2022-12-01T05:43:04.390Z,78.89
2022-12-01T05:43:36.071Z,78.49
2022-12-01T05:44:07.807Z,78.27
2022-12-01T05:44:39.501Z,77.62
2022-12-01T05:45:11.260Z,77.26
2022-12-01T05:45:43.044Z,77.55
2022-12-01T05:46:14.807Z,77.67
2022-12-01T05:46:46.529Z,77.72
2022-12-01T05:47:18.265Z,77.77
2022-12-01T05:47:50.303Z,77.77
2022-12-01T05:48:22.088Z,77.95
2022-12-01T05:48:53.807Z,77.70
2022-12-01T05:49:25.510Z,77.74
2022-12-01T05:50:02.233Z,78.00
2022-12-01T05:50:38.534Z,77.75
2022-12-01T05:51:12.110Z,77.58
2022-12-01T05:51:45.331Z,77.72
2022-12-01T05:52:17.189Z,78.00
2022-12-01T05:52:48.894Z,78.21
2022-12-01T05:53:20.892Z,78.32
2022-12-01T05:53:53.035Z,78.43
2022-12-01T05:54:24.692Z,78.45
2022-12-01T05:54:56.378Z,79.97
2022-12-01T05:55:28.054Z,85.06
2022-12-01T05:55:59.724Z,82.88
2022-12-01T05:56:31.398Z,87.76
2022-12-01T05:57:03.203Z,96.10
2022-12-01T05:57:34.902Z,89.81
2022-12-01T05:58:06.646Z,86.92
2022-12-01T05:58:38.667Z,88.15
2022-12-01T05:59:10.368Z,84.94
2022-12-01T05:59:42.156Z,85.04
2022-12-01T06:00:14.264Z,81.94
2022-12-01T06:00:46.475Z,80.48
2022-12-01T06:01:18.174Z,79.95
2022-12-01T06:01:49.932Z,79.12
2022-12-01T06:02:21.821Z,78.68
2022-12-01T06:02:53.514Z,78.28
2022-12-01T06:03:25.368Z,78.31
2022-12-01T06:03:57.409Z,78.57
2022-12-01T06:04:29.237Z,78.84
2022-12-01T06:05:00.969Z,78.81
2022-12-01T06:05:32.735Z,79.21
2022-12-01T06:06:04.806Z,79.05
2022-12-01T06:06:36.460Z,79.37
2022-12-01T06:07:08.218Z,79.52
2022-12-01T06:07:40.492Z,79.72
2022-12-01T06:08:12.337Z,79.84
2022-12-01T06:08:44.201Z,79.92
2022-12-01T06:09:15.898Z,79.36
2022-12-01T06:09:47.972Z,79.19
2022-12-01T06:10:20.082Z,79.34
2022-12-01T06:10:51.770Z,79.28
2022-12-01T06:11:23.765Z,79.53
2022-12-01T06:11:55.445Z,79.86
2022-12-01T06:12:27.205Z,79.78
2022-12-01T06:12:58.921Z,79.96
2022-12-01T06:13:30.623Z,80.25
2022-12-01T06:14:02.358Z,80.19
2022-12-01T06:14:34.066Z,79.91
2022-12-01T06:15:06.721Z,79.65
2022-12-01T06:15:38.455Z,79.57
2022-12-01T06:16:10.153Z,79.25
2022-12-01T06:16:42.196Z,79.40
2022-12-01T06:17:13.863Z,79.50
2022-12-01T06:17:45.572Z,79.49
2022-12-01T06:18:17.268Z,79.54
2022-12-01T06:18:48.931Z,79.28
2022-12-01T06:19:20.630Z,79.09
2022-12-01T06:19:52.447Z,79.33
2022-12-01T06:20:24.175Z,78.95
2022-12-01T06:20:55.863Z,78.85
2022-12-01T06:21:27.557Z,78.91
2022-12-01T06:21:59.522Z,78.41
2022-12-01T06:22:31.229Z,78.29
2022-12-01T06:23:03.003Z,77.81
2022-12-01T06:23:34.987Z,77.42
2022-12-01T06:24:06.861Z,77.07
2022-12-01T06:24:38.580Z,76.94
2022-12-01T06:25:10.373Z,76.59
2022-12-01T06:25:42.048Z,77.02
2022-12-01T06:26:13.769Z,77.38
2022-12-01T06:26:45.530Z,77.16
2022-12-01T06:27:17.517Z,76.94
2022-12-01T06:27:49.254Z,76.62
2022-12-01T06:28:21.075Z,76.22
2022-12-01T06:28:52.752Z,76.25
2022-12-01T06:29:24.497Z,76.19
2022-12-01T06:29:56.311Z,75.96
2022-12-01T06:30:27.993Z,75.79
2022-12-01T06:31:03.435Z,75.86
2022-12-01T06:31:35.510Z,75.94
2022-12-01T06:32:07.336Z,75.74
2022-12-01T06:32:39.389Z,75.71
2022-12-01T06:33:11.126Z,75.66
2022-12-01T06:33:42.793Z,75.52
2022-12-01T06:34:14.635Z,75.35
2022-12-01T06:34:46.345Z,76.05
2022-12-01T06:35:18.034Z,76.27
2022-12-01T06:35:56.772Z,76.31
2022-12-01T06:36:28.582Z,76.70
2022-12-01T06:37:00.302Z,76.59
2022-12-01T06:37:32.123Z,76.70
2022-12-01T06:38:04.174Z,76.71
2022-12-01T06:38:36.480Z,76.11
2022-12-01T06:39:11.861Z,76.18
2022-12-01T06:39:43.844Z,89.55
2022-12-01T06:40:15.588Z,100.00
2022-12-01T06:40:47.267Z,100.00
2022-12-01T06:41:18.950Z,100.00
2022-12-01T06:41:50.722Z,100.00
2022-12-01T06:42:22.746Z,100.00
2022-12-01T06:42:54.402Z,100.00
2022-12-01T06:43:26.681Z,100.00
2022-12-01T06:43:58.345Z,100.00
2022-12-01T06:44:30.058Z,100.00
2022-12-01T06:45:01.768Z,88.28
2022-12-01T06:45:33.571Z,97.14
2022-12-01T06:46:05.421Z,92.97
2022-12-01T06:46:37.434Z,92.88
2022-12-01T06:47:09.277Z,88.54
2022-12-01T06:47:41.020Z,88.80
2022-12-01T06:48:12.814Z,92.88
2022-12-01T06:48:47.581Z,94.21
2022-12-01T06:49:20.162Z,91.35
2022-12-01T06:49:52.161Z,89.07
2022-12-01T06:50:24.415Z,87.16
2022-12-01T06:50:59.279Z,84.61
2022-12-01T06:51:33.817Z,100.00
2022-12-01T06:52:05.623Z,96.43
2022-12-01T06:52:37.837Z,95.65
2022-12-01T06:53:10.020Z,95.93
2022-12-01T06:53:41.988Z,92.53
2022-12-01T06:54:14.595Z,89.67
2022-12-01T06:54:46.286Z,88.93
2022-12-01T06:55:18.298Z,88.88
2022-12-01T06:55:50.164Z,85.31
2022-12-01T06:56:22.915Z,85.63
2022-12-01T06:56:55.001Z,83.82
2022-12-01T06:57:27.195Z,81.33
2022-12-01T06:58:02.345Z,100.00
2022-12-01T06:58:34.697Z,100.00
2022-12-01T06:59:06.727Z,100.00
2022-12-01T06:59:40.420Z,91.70
2022-12-01T07:00:13.546Z,92.21
2022-12-01T07:00:51.802Z,84.21
2022-12-01T07:01:23.931Z,88.11
2022-12-01T07:01:57.692Z,84.51
2022-12-01T07:02:29.528Z,80.73
2022-12-01T07:03:01.438Z,78.23
2022-12-01T07:03:33.284Z,76.96
2022-12-01T07:04:05.125Z,75.99
2022-12-01T07:04:36.854Z,74.71
2022-12-01T07:05:08.910Z,75.64
2022-12-01T07:05:40.615Z,75.17
2022-12-01T07:06:12.312Z,74.38
2022-12-01T07:06:44.063Z,74.84
2022-12-01T07:07:16.019Z,74.47
2022-12-01T07:07:47.830Z,75.07
2022-12-01T07:08:19.585Z,74.95
2022-12-01T07:08:52.446Z,74.87
2022-12-01T07:09:24.131Z,74.39
2022-12-01T07:09:55.873Z,74.63
2022-12-01T07:10:28.118Z,74.11
2022-12-01T07:11:04.742Z,73.92
2022-12-01T07:11:36.975Z,73.08
2022-12-01T07:12:08.677Z,72.84
2022-12-01T07:12:40.447Z,72.97
2022-12-01T07:13:12.114Z,73.18
2022-12-01T07:13:47.103Z,73.08
2022-12-01T07:14:26.563Z,71.77
2022-12-01T07:14:58.267Z,71.72
2022-12-01T07:15:30.244Z,69.96
2022-12-01T07:16:03.076Z,70.36
2022-12-01T07:16:35.018Z,69.67